createdAt,value
2018-05-01T00:01:09.942Z,0.00
2018-05-01T00:01:48.937Z,0.00
2018-05-01T00:02:48.937Z,0.00
2018-05-01T00:03:48.947Z,0.00
2018-05-01T00:04:48.953Z,0.00
2018-05-01T00:05:49.065Z,0.00
2018-05-01T00:07:09.916Z,0.00
2018-05-01T00:07:48.929Z,0.00
2018-05-01T00:08:48.925Z,0.00
2018-05-01T00:09:48.923Z,0.00
2018-05-01T00:10:48.888Z,0.00
2018-05-01T00:11:48.885Z,0.00
2018-05-01T00:13:09.889Z,0.00
2018-05-01T00:13:48.920Z,0.00
2018-05-01T00:14:48.918Z,0.00
2018-05-01T00:15:48.868Z,0.00
2018-05-01T00:16:48.876Z,0.00
2018-05-01T00:17:48.901Z,0.00
2018-05-01T00:19:09.839Z,0.00
2018-05-01T00:19:48.846Z,0.00
2018-05-01T00:20:48.864Z,0.00
2018-05-01T00:21:48.836Z,0.00
2018-05-01T00:22:48.868Z,0.00
2018-05-01T00:23:48.889Z,0.00
2018-05-01T00:25:09.816Z,0.00
2018-05-01T00:25:48.830Z,0.00
2018-05-01T00:26:48.812Z,0.00
2018-05-01T00:27:48.823Z,0.00
2018-05-01T00:28:48.830Z,0.00
2018-05-01T00:29:48.826Z,0.00
2018-05-01T00:31:09.831Z,0.00
2018-05-01T00:31:48.827Z,0.00
2018-05-01T00:32:48.836Z,0.00
2018-05-01T00:33:48.816Z,0.00
2018-05-01T00:34:48.833Z,0.00
2018-05-01T00:35:48.818Z,0.00
2018-05-01T00:37:09.793Z,0.00
2018-05-01T00:37:48.758Z,0.00
2018-05-01T00:38:48.786Z,0.00
2018-05-01T00:39:48.791Z,0.00
2018-05-01T00:40:48.785Z,0.00
2018-05-01T00:41:48.726Z,0.00
2018-05-01T00:43:09.724Z,0.00
2018-05-01T00:43:48.728Z,0.00
2018-05-01T00:44:48.729Z,0.00
2018-05-01T00:45:48.725Z,0.00
2018-05-01T00:46:48.737Z,0.00
2018-05-01T00:47:48.721Z,0.00
2018-05-01T00:49:09.675Z,0.00
2018-05-01T00:49:48.752Z,0.00
2018-05-01T00:50:48.707Z,0.00
2018-05-01T00:51:48.745Z,0.00
2018-05-01T00:52:48.725Z,0.00
2018-05-01T00:53:48.694Z,0.00
2018-05-01T00:55:09.649Z,0.00
2018-05-01T00:55:48.660Z,0.00
2018-05-01T00:56:48.687Z,0.00
2018-05-01T00:57:48.692Z,0.00
2018-05-01T00:58:48.631Z,0.00
2018-05-01T00:59:48.634Z,0.00
2018-05-01T01:01:09.617Z,0.00
2018-05-01T01:01:48.615Z,0.00
2018-05-01T01:02:48.678Z,0.00
2018-05-01T01:03:48.633Z,0.00
2018-05-01T01:04:48.634Z,0.00
2018-05-01T01:05:48.634Z,0.00
2018-05-01T01:07:09.583Z,0.00
2018-05-01T01:07:48.599Z,0.00
2018-05-01T01:08:48.597Z,0.00
2018-05-01T01:09:48.620Z,0.00
2018-05-01T01:10:48.571Z,0.00
2018-05-01T01:11:48.575Z,0.00
2018-05-01T01:13:09.551Z,0.00
2018-05-01T01:13:48.597Z,0.00
2018-05-01T01:14:48.600Z,0.00
2018-05-01T01:15:48.549Z,0.00
2018-05-01T01:16:48.560Z,0.00
2018-05-01T01:17:48.546Z,0.00
2018-05-01T01:19:09.527Z,0.00
2018-05-01T01:19:48.538Z,0.00
2018-05-01T01:20:48.546Z,0.00
2018-05-01T01:21:48.530Z,0.00
2018-05-01T01:22:48.577Z,0.00
2018-05-01T01:23:48.570Z,0.00
2018-05-01T01:25:09.577Z,0.00
2018-05-01T01:25:48.499Z,0.00
2018-05-01T01:26:48.478Z,0.00
2018-05-01T01:27:48.487Z,0.00
2018-05-01T01:28:48.493Z,0.00
2018-05-01T01:29:48.501Z,0.00
2018-05-01T02:02:40.975Z,0.00
2018-05-01T02:03:40.937Z,0.00
2018-05-01T02:05:33.877Z,0.00
2018-05-01T02:06:33.838Z,0.00
2018-05-01T02:08:26.896Z,0.00
2018-05-01T02:09:26.863Z,0.00
2018-05-01T02:11:19.776Z,0.00
2018-05-01T02:12:19.747Z,0.00
2018-05-01T02:14:12.697Z,0.00
2018-05-01T02:15:12.738Z,0.00
2018-05-01T02:17:05.627Z,0.00
2018-05-01T02:18:05.598Z,0.00
2018-05-01T02:19:58.531Z,0.00
2018-05-01T02:20:58.513Z,0.00
2018-05-01T02:22:51.409Z,0.00
2018-05-01T02:23:51.401Z,0.00
2018-05-01T02:25:44.350Z,0.00
2018-05-01T02:26:44.306Z,0.00
2018-05-01T02:28:37.272Z,0.00
2018-05-01T02:29:37.245Z,0.00
2018-05-01T02:31:30.237Z,0.00
2018-05-01T02:32:30.219Z,0.00
2018-05-01T02:34:23.174Z,0.00
2018-05-01T02:35:23.161Z,0.00
2018-05-01T02:37:16.144Z,0.00
2018-05-01T02:38:16.142Z,0.00
2018-05-01T02:40:09.077Z,0.00
2018-05-01T02:41:09.132Z,0.00
2018-05-01T02:42:09.033Z,0.00
2018-05-01T02:43:09.035Z,0.00
2018-05-01T02:44:09.054Z,0.00
2018-05-01T02:45:09.026Z,0.00
2018-05-01T02:46:09.020Z,0.00
2018-05-01T02:47:09.019Z,0.00
2018-05-01T02:48:08.997Z,0.00
2018-05-01T02:49:09.002Z,0.00
2018-05-01T02:50:08.993Z,0.00
2018-05-01T02:51:08.988Z,0.00
2018-05-01T02:52:08.990Z,0.00
2018-05-01T02:53:08.982Z,0.00
2018-05-01T02:54:08.970Z,0.00
2018-05-01T02:55:08.969Z,0.00
2018-05-01T02:56:08.964Z,0.00
2018-05-01T02:57:08.955Z,0.00
2018-05-01T02:58:08.955Z,0.00
2018-05-01T02:59:08.945Z,0.00
2018-05-01T03:00:08.939Z,0.00
2018-05-01T03:01:08.954Z,0.00
2018-05-01T03:02:08.918Z,0.00
2018-05-01T03:03:08.924Z,0.00
2018-05-01T03:04:08.921Z,0.00
2018-05-01T03:05:08.916Z,0.00
2018-05-01T03:06:08.912Z,0.00
2018-05-01T03:07:08.903Z,0.00
2018-05-01T03:08:08.897Z,0.00
2018-05-01T03:09:08.884Z,0.00
2018-05-01T03:10:08.885Z,0.00
2018-05-01T03:11:08.868Z,0.00
2018-05-01T03:12:08.879Z,0.00
2018-05-01T03:13:08.865Z,0.00
2018-05-01T03:14:08.864Z,0.00
2018-05-01T03:15:08.851Z,0.00
2018-05-01T03:16:08.847Z,0.00
2018-05-01T03:17:08.835Z,0.00
2018-05-01T03:18:08.839Z,0.00
2018-05-01T03:19:08.832Z,0.00
2018-05-01T03:20:08.826Z,0.00
2018-05-01T03:21:08.820Z,0.00
2018-05-01T03:22:08.811Z,0.00
2018-05-01T03:23:08.819Z,0.00
2018-05-01T03:24:08.804Z,0.00
2018-05-01T03:25:08.803Z,0.00
2018-05-01T03:26:08.791Z,0.00
2018-05-01T03:27:08.791Z,0.00
2018-05-01T03:28:08.776Z,0.00
2018-05-01T03:29:08.778Z,0.00
2018-05-01T03:30:08.764Z,0.00
2018-05-01T03:31:08.775Z,0.00
2018-05-01T03:32:08.760Z,0.00
2018-05-01T03:33:08.755Z,0.00
2018-05-01T03:34:08.744Z,0.00
2018-05-01T03:35:08.737Z,0.00
2018-05-01T03:36:08.747Z,0.00
2018-05-01T03:37:08.743Z,0.00
2018-05-01T03:38:08.761Z,0.00
2018-05-01T03:39:08.803Z,0.00
2018-05-01T03:40:08.713Z,0.00
2018-05-01T03:41:08.703Z,0.00
2018-05-01T03:42:08.697Z,0.00
2018-05-01T03:43:08.703Z,0.00
2018-05-01T03:44:08.693Z,0.00
2018-05-01T03:45:08.675Z,0.00
2018-05-01T03:46:08.726Z,0.00
2018-05-01T03:47:08.670Z,0.00
2018-05-01T03:48:08.670Z,0.00
2018-05-01T03:49:08.659Z,0.00
2018-05-01T03:50:08.651Z,0.00
2018-05-01T03:51:08.659Z,0.00
2018-05-01T03:52:08.639Z,0.00
2018-05-01T03:53:08.650Z,0.00
2018-05-01T03:54:08.629Z,0.00
2018-05-01T03:55:08.630Z,0.00
2018-05-01T03:56:08.645Z,0.00
2018-05-01T03:57:08.611Z,0.00
2018-05-01T03:58:08.605Z,0.00
2018-05-01T03:59:08.606Z,0.00
2018-05-01T04:00:08.604Z,0.00
2018-05-01T04:01:08.590Z,0.00
2018-05-01T04:02:08.590Z,0.00
2018-05-01T04:03:08.579Z,0.00
2018-05-01T04:04:08.576Z,0.00
2018-05-01T04:05:08.569Z,0.00
2018-05-01T04:06:08.562Z,0.00
2018-05-01T04:07:08.559Z,0.00
2018-05-01T04:08:08.545Z,0.00
2018-05-01T04:09:08.549Z,0.00
2018-05-01T04:10:08.544Z,0.00
2018-05-01T04:11:08.534Z,0.00
2018-05-01T04:12:08.523Z,0.00
2018-05-01T04:13:08.528Z,0.00
2018-05-01T04:14:08.517Z,0.00
2018-05-01T04:15:08.528Z,0.00
2018-05-01T04:16:08.503Z,0.00
2018-05-01T04:17:08.500Z,0.00
2018-05-01T04:18:08.489Z,5.63
2018-05-01T04:19:08.483Z,5.63
2018-05-01T04:20:08.485Z,5.63
2018-05-01T04:21:08.472Z,5.63
2018-05-01T04:22:08.488Z,5.63
2018-05-01T04:23:08.470Z,5.63
2018-05-01T04:24:08.472Z,5.63
2018-05-01T04:25:08.455Z,5.63
2018-05-01T04:26:08.443Z,5.63
2018-05-01T04:27:08.447Z,11.25
2018-05-01T04:28:08.434Z,11.25
2018-05-01T04:29:08.435Z,11.25
2018-05-01T04:30:08.421Z,11.25
2018-05-01T04:31:08.419Z,11.25
2018-05-01T04:32:08.406Z,11.25
2018-05-01T04:33:08.402Z,11.25
2018-05-01T04:34:08.399Z,11.25
2018-05-01T04:35:08.394Z,11.25
2018-05-01T04:36:08.385Z,11.25
2018-05-01T04:37:08.382Z,16.88
2018-05-01T04:38:08.370Z,16.88
2018-05-01T04:39:08.389Z,16.88
2018-05-01T04:40:08.367Z,16.88
2018-05-01T04:41:08.348Z,16.88
2018-05-01T04:42:08.351Z,22.50
2018-05-01T04:43:08.353Z,22.50
2018-05-01T04:44:08.341Z,22.50
2018-05-01T04:45:08.325Z,28.13
2018-05-01T04:46:08.322Z,28.13
2018-05-01T04:47:08.316Z,28.13
2018-05-01T04:48:08.313Z,28.13
2018-05-01T04:49:08.302Z,28.13
2018-05-01T04:50:08.292Z,28.13
2018-05-01T04:51:08.283Z,28.13
2018-05-01T04:52:08.306Z,28.13
2018-05-01T04:53:08.279Z,22.50
2018-05-01T04:54:08.287Z,28.13
2018-05-01T04:55:08.278Z,28.13
2018-05-01T04:56:08.306Z,28.13
2018-05-01T04:57:08.251Z,33.75
2018-05-01T04:58:08.255Z,33.75
2018-05-01T04:59:08.255Z,28.13
2018-05-01T05:00:08.255Z,22.50
2018-05-01T05:01:08.992Z,28.13
2018-05-01T05:02:08.245Z,33.75
2018-05-01T05:03:08.217Z,33.75
2018-05-01T05:04:08.215Z,33.75
2018-05-01T05:05:08.204Z,33.75
2018-05-01T05:06:08.207Z,28.13
2018-05-01T05:07:08.206Z,28.13
2018-05-01T05:08:08.196Z,28.13
2018-05-01T05:09:08.181Z,28.13
2018-05-01T05:10:08.175Z,33.75
2018-05-01T05:11:08.171Z,33.75
2018-05-01T05:12:08.160Z,28.13
2018-05-01T05:13:08.152Z,28.13
2018-05-01T05:14:08.153Z,33.75
2018-05-01T05:15:08.162Z,33.75
2018-05-01T05:16:08.130Z,39.38
2018-05-01T05:17:08.167Z,45.00
2018-05-01T05:18:08.129Z,45.00
2018-05-01T05:19:08.117Z,45.00
2018-05-01T05:20:08.107Z,45.00
2018-05-01T05:21:08.103Z,39.38
2018-05-01T05:22:08.091Z,45.00
2018-05-01T05:23:08.096Z,45.00
2018-05-01T05:24:08.083Z,39.38
2018-05-01T05:25:08.080Z,39.38
2018-05-01T05:26:08.073Z,45.00
2018-05-01T05:27:08.058Z,50.63
2018-05-01T05:28:08.060Z,56.25
2018-05-01T05:29:08.055Z,56.25
2018-05-01T05:30:08.045Z,61.88
2018-05-01T05:31:08.041Z,61.88
2018-05-01T05:32:08.041Z,61.88
2018-05-01T05:33:08.025Z,61.88
2018-05-01T05:34:08.026Z,67.50
2018-05-01T05:35:08.023Z,73.13
2018-05-01T05:36:08.071Z,73.13
2018-05-01T05:37:07.996Z,73.13
2018-05-01T05:38:08.001Z,78.75
2018-05-01T05:39:08.007Z,78.75
2018-05-01T05:40:07.974Z,78.75
2018-05-01T05:41:07.971Z,78.75
2018-05-01T05:42:07.981Z,73.13
2018-05-01T05:43:07.983Z,78.75
2018-05-01T05:44:07.960Z,84.38
2018-05-01T05:45:07.968Z,90.00
2018-05-01T05:46:07.974Z,95.63
2018-05-01T05:47:07.944Z,95.63
2018-05-01T05:48:07.933Z,95.63
2018-05-01T05:49:07.931Z,95.63
2018-05-01T05:50:07.927Z,84.38
2018-05-01T05:51:07.920Z,84.38
2018-05-01T05:52:07.903Z,84.38
2018-05-01T05:53:07.914Z,95.63
2018-05-01T05:54:07.905Z,101.25
2018-05-01T05:55:07.897Z,101.25
2018-05-01T05:56:08.029Z,101.25
2018-05-01T05:57:07.877Z,106.88
2018-05-01T05:58:07.874Z,118.13
2018-05-01T05:59:07.877Z,123.75
2018-05-01T06:00:07.855Z,123.75
2018-05-01T06:01:07.885Z,123.75
2018-05-01T06:02:07.857Z,129.38
2018-05-01T06:03:07.861Z,129.38
2018-05-01T06:04:07.840Z,123.75
2018-05-01T06:05:07.836Z,129.38
2018-05-01T06:06:07.828Z,129.38
2018-05-01T06:07:07.823Z,129.38
2018-05-01T06:08:07.820Z,135.00
2018-05-01T06:09:07.810Z,135.00
2018-05-01T06:10:07.805Z,135.00
2018-05-01T06:11:07.814Z,129.38
2018-05-01T06:12:07.808Z,118.13
2018-05-01T06:13:07.849Z,118.13
2018-05-01T06:14:07.784Z,118.13
2018-05-01T06:15:07.764Z,118.13
2018-05-01T06:16:07.760Z,118.13
2018-05-01T06:17:07.754Z,123.75
2018-05-01T06:18:07.755Z,123.75
2018-05-01T06:19:07.750Z,118.13
2018-05-01T06:20:07.744Z,112.50
2018-05-01T06:21:07.743Z,112.50
2018-05-01T06:22:07.729Z,129.38
2018-05-01T06:23:07.731Z,140.63
2018-05-01T06:24:07.712Z,146.25
2018-05-01T06:25:07.718Z,140.63
2018-05-01T06:26:07.711Z,129.38
2018-05-01T06:27:07.723Z,123.75
2018-05-01T06:28:07.696Z,123.75
2018-05-01T06:29:07.696Z,123.75
2018-05-01T06:30:07.756Z,123.75
2018-05-01T06:31:07.844Z,118.13
2018-05-01T06:32:07.675Z,112.50
2018-05-01T06:33:07.665Z,112.50
2018-05-01T06:34:07.665Z,106.88
2018-05-01T06:35:07.673Z,118.13
2018-05-01T06:36:07.651Z,129.38
2018-05-01T06:37:07.655Z,146.25
2018-05-01T06:38:07.647Z,151.88
2018-05-01T06:39:07.729Z,146.25
2018-05-01T06:40:07.657Z,140.63
2018-05-01T06:41:07.643Z,129.38
2018-05-01T06:42:07.670Z,123.75
2018-05-01T06:43:07.633Z,118.13
2018-05-01T06:44:07.638Z,123.75
2018-05-01T06:45:07.712Z,123.75
2018-05-01T06:46:07.608Z,123.75
2018-05-01T06:47:07.659Z,123.75
2018-05-01T06:48:07.665Z,123.75
2018-05-01T06:49:07.597Z,129.38
2018-05-01T06:50:07.600Z,135.00
2018-05-01T06:51:07.575Z,135.00
2018-05-01T06:52:07.586Z,140.63
2018-05-01T06:53:07.557Z,140.63
2018-05-01T06:54:07.562Z,140.63
2018-05-01T06:55:07.544Z,140.63
2018-05-01T06:56:07.540Z,140.63
2018-05-01T06:57:07.538Z,140.63
2018-05-01T06:58:07.533Z,135.00
2018-05-01T06:59:07.524Z,140.63
2018-05-01T07:00:07.537Z,146.25
2018-05-01T07:01:08.141Z,157.50
2018-05-01T07:02:07.508Z,168.75
2018-05-01T07:03:07.513Z,174.38
2018-05-01T07:04:07.750Z,174.38
2018-05-01T07:05:07.556Z,174.38
2018-05-01T07:06:07.480Z,180.00
2018-05-01T07:07:07.477Z,185.63
2018-05-01T07:08:07.463Z,191.25
2018-05-01T07:09:07.515Z,185.63
2018-05-01T07:10:07.598Z,185.63
2018-05-01T07:11:07.453Z,191.25
2018-05-01T07:12:07.457Z,202.50
2018-05-01T07:13:07.705Z,219.38
2018-05-01T07:14:07.434Z,236.25
2018-05-01T07:15:07.464Z,247.50
2018-05-01T07:16:10.186Z,253.13
2018-05-01T07:17:07.439Z,253.13
2018-05-01T07:18:07.589Z,264.38
2018-05-01T07:19:07.413Z,286.88
2018-05-01T07:20:07.408Z,286.88
2018-05-01T07:21:07.483Z,264.38
2018-05-01T07:22:07.487Z,230.63
2018-05-01T07:23:07.422Z,225.00
2018-05-01T07:24:07.397Z,219.38
2018-05-01T07:25:08.013Z,247.50
2018-05-01T07:26:08.007Z,275.63
2018-05-01T07:27:07.380Z,292.50
2018-05-01T07:28:07.367Z,281.25
2018-05-01T07:29:07.361Z,298.13
2018-05-01T07:30:07.356Z,315.00
2018-05-01T07:31:07.383Z,343.13
2018-05-01T07:32:07.358Z,343.13
2018-05-01T07:33:07.346Z,292.50
2018-05-01T07:34:07.356Z,264.38
2018-05-01T07:35:07.327Z,264.38
2018-05-01T07:36:07.365Z,309.38
2018-05-01T07:37:07.343Z,337.50
2018-05-01T07:38:07.352Z,331.88
2018-05-01T07:39:07.307Z,309.38
2018-05-01T07:40:07.421Z,371.25
2018-05-01T07:41:07.309Z,410.63
2018-05-01T07:42:07.303Z,427.50
2018-05-01T07:43:07.381Z,427.50
2018-05-01T07:44:07.290Z,427.50
2018-05-01T07:45:07.282Z,427.50
2018-05-01T07:46:08.009Z,421.88
2018-05-01T07:47:07.278Z,427.50
2018-05-01T07:48:07.299Z,421.88
2018-05-01T07:49:07.334Z,416.25
2018-05-01T07:50:07.262Z,416.25
2018-05-01T07:51:07.252Z,416.25
2018-05-01T07:52:07.318Z,421.88
2018-05-01T07:53:07.264Z,433.13
2018-05-01T07:54:07.279Z,444.38
2018-05-01T07:55:07.233Z,433.13
2018-05-01T07:56:07.234Z,410.63
2018-05-01T07:57:07.217Z,393.75
2018-05-01T07:58:07.427Z,388.13
2018-05-01T07:59:07.219Z,399.38
2018-05-01T08:00:07.208Z,438.75
2018-05-01T08:01:08.015Z,483.75
2018-05-01T08:02:08.069Z,495.00
2018-05-01T08:03:07.212Z,483.75
2018-05-01T08:04:07.201Z,472.50
2018-05-01T08:05:08.110Z,466.88
2018-05-01T08:06:08.188Z,472.50
2018-05-01T08:07:08.092Z,461.25
2018-05-01T08:08:07.205Z,450.00
2018-05-01T08:09:07.485Z,444.38
2018-05-01T08:10:07.198Z,444.38
2018-05-01T08:11:07.214Z,455.63
2018-05-01T08:12:07.285Z,472.50
2018-05-01T08:13:09.024Z,472.50
2018-05-01T08:14:07.256Z,461.25
2018-05-01T08:15:07.224Z,444.38
2018-05-01T08:16:07.182Z,427.50
2018-05-01T08:17:07.184Z,410.63
2018-05-01T08:18:07.179Z,399.38
2018-05-01T08:19:07.187Z,376.88
2018-05-01T08:20:07.149Z,360.00
2018-05-01T08:21:07.163Z,365.63
2018-05-01T08:22:07.156Z,393.75
2018-05-01T08:23:07.184Z,438.75
2018-05-01T08:24:07.181Z,483.75
2018-05-01T08:25:07.134Z,517.50
2018-05-01T08:26:07.217Z,534.38
2018-05-01T08:27:07.179Z,534.38
2018-05-01T08:28:07.169Z,528.75
2018-05-01T08:29:07.111Z,534.38
2018-05-01T08:30:07.127Z,551.25
2018-05-01T08:31:07.128Z,579.38
2018-05-01T08:32:07.138Z,601.88
2018-05-01T08:33:07.108Z,624.38
2018-05-01T08:34:07.139Z,635.63
2018-05-01T08:35:07.156Z,641.25
2018-05-01T08:36:07.164Z,646.88
2018-05-01T08:37:07.120Z,652.50
2018-05-01T08:38:07.100Z,658.13
2018-05-01T08:39:07.107Z,646.88
2018-05-01T08:40:07.346Z,624.38
2018-05-01T08:41:07.097Z,596.25
2018-05-01T08:42:07.111Z,562.50
2018-05-01T08:43:07.702Z,540.00
2018-05-01T08:44:07.109Z,528.75
2018-05-01T08:45:07.118Z,511.88
2018-05-01T08:46:07.183Z,511.88
2018-05-01T08:47:07.059Z,511.88
2018-05-01T08:48:07.112Z,506.25
2018-05-01T08:49:07.102Z,495.00
2018-05-01T08:50:07.107Z,495.00
2018-05-01T08:51:07.044Z,517.50
2018-05-01T08:52:07.584Z,540.00
2018-05-01T08:53:07.076Z,545.63
2018-05-01T08:54:07.052Z,545.63
2018-05-01T08:55:07.120Z,528.75
2018-05-01T08:56:07.094Z,562.50
2018-05-01T08:57:07.036Z,579.38
2018-05-01T08:58:07.034Z,590.63
2018-05-01T08:59:07.028Z,601.88
2018-05-01T09:00:07.055Z,596.25
2018-05-01T09:01:07.590Z,601.88
2018-05-01T09:02:07.044Z,618.75
2018-05-01T09:03:07.022Z,635.63
2018-05-01T09:04:07.033Z,658.13
2018-05-01T09:05:07.044Z,675.00
2018-05-01T09:06:07.053Z,714.38
2018-05-01T09:07:06.994Z,736.88
2018-05-01T09:08:07.022Z,753.75
2018-05-01T09:09:06.994Z,781.88
2018-05-01T09:10:06.995Z,810.00
2018-05-01T09:11:07.000Z,832.50
2018-05-01T09:12:06.971Z,843.75
2018-05-01T09:13:07.018Z,860.63
2018-05-01T09:14:07.010Z,871.88
2018-05-01T09:15:07.644Z,900.00
2018-05-01T09:16:07.109Z,905.63
2018-05-01T09:17:07.002Z,883.13
2018-05-01T09:18:07.173Z,860.63
2018-05-01T09:19:06.975Z,843.75
2018-05-01T09:20:06.967Z,883.13
2018-05-01T09:21:06.978Z,916.88
2018-05-01T09:22:07.014Z,916.88
2018-05-01T09:23:06.961Z,894.38
2018-05-01T09:24:07.004Z,877.50
2018-05-01T09:25:06.964Z,905.63
2018-05-01T09:26:06.973Z,939.38
2018-05-01T09:27:06.966Z,928.13
2018-05-01T09:28:06.974Z,905.63
2018-05-01T09:29:07.012Z,922.50
2018-05-01T09:30:07.000Z,978.75
2018-05-01T09:31:06.945Z,1046.25
2018-05-01T09:32:06.950Z,1057.50
2018-05-01T09:33:06.960Z,1018.13
2018-05-01T09:34:06.968Z,978.75
2018-05-01T09:35:06.928Z,950.63
2018-05-01T09:36:06.968Z,911.25
2018-05-01T09:37:06.936Z,883.13
2018-05-01T09:38:06.946Z,866.25
2018-05-01T09:39:06.964Z,900.00
2018-05-01T09:40:06.956Z,933.75
2018-05-01T09:41:07.018Z,945.00
2018-05-01T09:42:06.945Z,945.00
2018-05-01T09:43:06.923Z,928.13
2018-05-01T09:44:06.934Z,900.00
2018-05-01T09:45:06.922Z,855.00
2018-05-01T09:46:06.948Z,832.50
2018-05-01T09:47:06.927Z,826.88
2018-05-01T09:48:06.925Z,832.50
2018-05-01T09:49:06.962Z,855.00
2018-05-01T09:50:06.933Z,871.88
2018-05-01T09:51:06.956Z,916.88
2018-05-01T09:52:06.940Z,945.00
2018-05-01T09:53:06.947Z,956.25
2018-05-01T09:54:06.912Z,945.00
2018-05-01T09:55:06.888Z,950.63
2018-05-01T09:56:06.898Z,973.13
2018-05-01T09:57:06.922Z,990.00
2018-05-01T09:58:06.920Z,990.00
2018-05-01T09:59:06.944Z,967.50
2018-05-01T10:00:06.915Z,961.88
2018-05-01T10:01:06.901Z,990.00
2018-05-01T10:02:06.895Z,1012.50
2018-05-01T10:03:06.942Z,1006.88
2018-05-01T10:04:06.954Z,1012.50
2018-05-01T10:05:07.532Z,1063.13
2018-05-01T10:06:07.567Z,1158.75
2018-05-01T10:07:06.920Z,1243.13
2018-05-01T10:08:06.888Z,1288.13
2018-05-01T10:09:06.877Z,1260.00
2018-05-01T10:10:06.901Z,1209.38
2018-05-01T10:11:06.902Z,1220.63
2018-05-01T10:12:06.902Z,1276.88
2018-05-01T10:13:06.905Z,1344.38
2018-05-01T10:14:06.887Z,1350.00
2018-05-01T10:15:06.932Z,1338.75
2018-05-01T10:16:06.959Z,1355.63
2018-05-01T10:17:06.875Z,1411.88
2018-05-01T10:18:06.902Z,1434.38
2018-05-01T10:19:06.939Z,1428.75
2018-05-01T10:20:06.918Z,1434.38
2018-05-01T10:21:06.894Z,1490.63
2018-05-01T10:22:06.886Z,1546.88
2018-05-01T10:23:06.868Z,1642.50
2018-05-01T10:24:06.881Z,1721.25
2018-05-01T10:25:06.882Z,1749.38
2018-05-01T10:26:06.875Z,1659.38
2018-05-01T10:27:06.890Z,1586.25
2018-05-01T10:28:06.913Z,1580.63
2018-05-01T10:29:06.917Z,1614.38
2018-05-01T10:30:06.894Z,1608.75
2018-05-01T10:31:06.921Z,1620.00
2018-05-01T10:32:06.899Z,1681.88
2018-05-01T10:33:06.904Z,1788.75
2018-05-01T10:34:06.929Z,1895.63
2018-05-01T10:35:06.940Z,1985.63
2018-05-01T10:36:06.950Z,1968.75
2018-05-01T10:37:06.904Z,1951.88
2018-05-01T10:38:06.958Z,2008.13
2018-05-01T10:39:06.942Z,2081.25
2018-05-01T10:40:06.972Z,1980.00
2018-05-01T10:41:06.896Z,1833.75
2018-05-01T10:42:06.891Z,1822.50
2018-05-01T10:43:06.906Z,2047.50
2018-05-01T10:44:06.991Z,2356.88
2018-05-01T10:45:06.921Z,2660.63
2018-05-01T10:46:06.978Z,2638.13
2018-05-01T10:47:06.931Z,2430.00
2018-05-01T10:48:06.933Z,2604.38
2018-05-01T10:49:06.937Z,2463.75
2018-05-01T10:50:06.949Z,2514.38
2018-05-01T10:51:06.956Z,2334.38
2018-05-01T10:52:06.961Z,1845.00
2018-05-01T10:53:06.986Z,2041.88
2018-05-01T10:54:06.985Z,2188.13
2018-05-01T10:55:06.992Z,1968.75
2018-05-01T10:56:07.047Z,2086.88
2018-05-01T10:57:07.086Z,2053.13
2018-05-01T10:58:07.057Z,1968.75
2018-05-01T10:59:07.024Z,1935.00
2018-05-01T11:00:07.023Z,1850.63
2018-05-01T11:01:07.059Z,1743.75
2018-05-01T11:02:07.009Z,1710.00
2018-05-01T11:03:07.461Z,1715.63
2018-05-01T11:04:07.049Z,1805.63
2018-05-01T11:05:07.049Z,2199.38
2018-05-01T11:06:07.067Z,1946.25
2018-05-01T11:07:07.058Z,1760.63
2018-05-01T11:08:07.056Z,1653.75
2018-05-01T11:09:07.080Z,1805.63
2018-05-01T11:10:07.085Z,1777.50
2018-05-01T11:11:07.095Z,2165.63
2018-05-01T11:12:07.097Z,3661.88
2018-05-01T11:13:07.100Z,2621.25
2018-05-01T11:14:07.095Z,4331.25
2018-05-01T11:15:07.210Z,3656.25
2018-05-01T11:16:07.130Z,3470.63
2018-05-01T11:17:07.126Z,2953.13
2018-05-01T11:18:09.635Z,3386.25
2018-05-01T11:19:07.696Z,2739.38
2018-05-01T11:20:07.160Z,3161.25
2018-05-01T11:21:07.145Z,1940.63
2018-05-01T11:22:07.169Z,2407.50
2018-05-01T11:23:07.189Z,2992.50
2018-05-01T11:24:07.192Z,2548.13
2018-05-01T11:25:07.205Z,2340.00
2018-05-01T11:26:07.313Z,2210.63
2018-05-01T11:27:07.208Z,2362.50
2018-05-01T11:28:07.212Z,2767.50
2018-05-01T11:29:07.220Z,3442.50
2018-05-01T11:30:07.221Z,2109.38
2018-05-01T11:31:07.285Z,1642.50
2018-05-01T11:32:07.233Z,1456.88
2018-05-01T11:33:07.377Z,1400.63
2018-05-01T11:34:07.337Z,1473.75
2018-05-01T11:35:07.397Z,3420.00
2018-05-01T11:36:07.315Z,2098.13
2018-05-01T11:37:07.275Z,1361.25
2018-05-01T11:38:07.391Z,1186.88
2018-05-01T11:39:07.281Z,1102.50
2018-05-01T11:40:07.298Z,1035.00
2018-05-01T11:41:07.302Z,978.75
2018-05-01T11:42:07.314Z,978.75
2018-05-01T11:43:07.356Z,1108.13
2018-05-01T11:44:07.328Z,3352.50
2018-05-01T11:45:07.384Z,1794.38
2018-05-01T11:46:07.336Z,1411.88
2018-05-01T11:47:07.397Z,1440.00
2018-05-01T11:48:07.354Z,1603.13
2018-05-01T11:49:07.432Z,1451.25
2018-05-01T11:50:07.366Z,1636.88
2018-05-01T11:51:07.397Z,1996.88
2018-05-01T11:52:07.403Z,4314.38
2018-05-01T11:53:07.496Z,3420.00
2018-05-01T11:54:07.424Z,3138.75
2018-05-01T11:55:07.435Z,4353.75
2018-05-01T11:56:07.396Z,3993.75
2018-05-01T11:57:07.584Z,4674.38
2018-05-01T11:58:07.419Z,4286.25
2018-05-01T11:59:07.435Z,3802.50
2018-05-01T12:00:07.433Z,4353.75
2018-05-01T12:01:08.228Z,3999.38
2018-05-01T12:02:07.461Z,4050.00
2018-05-01T12:03:07.512Z,4033.13
2018-05-01T12:04:07.505Z,4033.13
2018-05-01T12:05:07.485Z,3858.75
2018-05-01T12:06:07.501Z,4100.63
2018-05-01T12:07:07.511Z,4128.75
2018-05-01T12:08:07.519Z,4061.25
2018-05-01T12:09:07.837Z,4095.00
2018-05-01T12:10:07.550Z,3892.50
2018-05-01T12:11:07.567Z,3976.88
2018-05-01T12:12:07.611Z,3870.00
2018-05-01T12:13:07.596Z,4190.63
2018-05-01T12:14:07.601Z,4438.13
2018-05-01T12:15:07.622Z,3290.63
2018-05-01T12:16:07.676Z,860.63
2018-05-01T12:17:07.674Z,849.38
2018-05-01T12:18:07.778Z,978.75
2018-05-01T12:19:07.749Z,1130.63
2018-05-01T12:20:07.702Z,3200.63
2018-05-01T12:21:07.710Z,4027.50
2018-05-01T12:22:07.724Z,4438.13
2018-05-01T12:23:08.763Z,4179.38
2018-05-01T12:24:07.790Z,3976.88
2018-05-01T12:25:07.895Z,4320.00
2018-05-01T12:26:07.839Z,3920.63
2018-05-01T12:27:07.801Z,2531.25
2018-05-01T12:28:07.839Z,1378.13
2018-05-01T12:29:07.818Z,1243.13
2018-05-01T12:30:07.876Z,1181.25
2018-05-01T12:31:07.866Z,1130.63
2018-05-01T12:32:07.896Z,1091.25
2018-05-01T12:33:07.860Z,1113.75
2018-05-01T12:34:07.856Z,1130.63
2018-05-01T12:35:07.904Z,1158.75
2018-05-01T12:36:07.943Z,1231.88
2018-05-01T12:37:08.109Z,1271.25
2018-05-01T12:38:07.991Z,1338.75
2018-05-01T12:39:07.967Z,1428.75
2018-05-01T12:40:07.929Z,1406.25
2018-05-01T12:41:07.950Z,1423.13
2018-05-01T12:42:07.940Z,1434.38
2018-05-01T12:43:07.955Z,1327.50
2018-05-01T12:44:08.032Z,1316.25
2018-05-01T12:45:07.957Z,1231.88
2018-05-01T12:46:07.968Z,1215.00
2018-05-01T12:47:08.280Z,1158.75
2018-05-01T12:48:08.041Z,1125.00
2018-05-01T12:49:08.051Z,1080.00
2018-05-01T12:50:08.113Z,1068.75
2018-05-01T12:51:07.983Z,1023.75
2018-05-01T12:52:07.966Z,1108.13
2018-05-01T12:53:08.019Z,1108.13
2018-05-01T12:54:08.008Z,1119.38
2018-05-01T12:55:08.252Z,1153.13
2018-05-01T12:56:08.066Z,1198.13
2018-05-01T12:57:08.096Z,1203.75
2018-05-01T12:58:08.020Z,1237.50
2018-05-01T12:59:08.077Z,1237.50
2018-05-01T13:00:08.036Z,1215.00
2018-05-01T13:01:08.042Z,1203.75
2018-05-01T13:02:08.052Z,1181.25
2018-05-01T13:03:08.056Z,1164.38
2018-05-01T13:04:07.993Z,1243.13
2018-05-01T13:05:08.110Z,1282.50
2018-05-01T13:06:08.051Z,1271.25
2018-05-01T13:07:08.151Z,1141.88
2018-05-01T13:08:08.041Z,1113.75
2018-05-01T13:09:08.025Z,1147.50
2018-05-01T13:10:08.048Z,1164.38
2018-05-01T13:11:08.029Z,1181.25
2018-05-01T13:12:08.021Z,1260.00
2018-05-01T13:13:08.029Z,1299.38
2018-05-01T13:14:08.063Z,1282.50
2018-05-01T13:15:08.061Z,1198.13
2018-05-01T13:16:08.077Z,1096.88
2018-05-01T13:17:08.081Z,1085.63
2018-05-01T13:18:08.109Z,1175.63
2018-05-01T13:19:08.094Z,1248.75
2018-05-01T13:20:08.053Z,1271.25
2018-05-01T13:21:08.046Z,1231.88
2018-05-01T13:22:08.055Z,1175.63